Altus, OK

8:26 AM CST on February 24, 2017 (GMT -0600)
Altus Municipal

Weather History for KAXS - September, 2012

Change the Weather History Date:

Tuesday, September 4, 2012

  Actual Average (KLTS) Record (KLTS)
Temperature  
Mean Temperature 90 °F -  
Max Temperature 104 °F 89 °F 105 °F (1998)
Min Temperature 75 °F 66 °F 57 °F (2010)
Cooling Degree Days 24    
Growing Degree Days 40 (Base 50)    
Moisture  
Dew Point 57 °F    
Average Humidity 35    
Maximum Humidity 53    
Minimum Humidity 20    
Precipitation  
Precipitation 0.00 in - - ()
Sea Level Pressure  
Sea Level Pressure 29.89 in    
Wind  
Wind Speed 7 mph (SSE)    
Max Wind Speed 14 mph    
Max Gust Speed 20 mph    
Visibility 10 miles    
Events Thunderstorm    
Averages and records for this station are not official NWS values.
T = Trace of Precipitation, MM = Missing Value Source: NWS Daily Summary

Daily Weather History Graph

Daily Weather History Graph

Search for Another Location

Airport or City:

Trip Planner

Search our weather history database for the weather conditions in past years. The results will help you decide how hot, cold, wet, or windy it might be!

Date:

Astronomy

Sep. 04, 2012 Rise Set
Actual Time 7:12 AM CDT 7:58 PM CDT
Civil Twilight 6:47 AM CDT 8:24 PM CDT
Nautical Twilight 6:17 AM CDT 8:54 PM CDT
Astronomical Twilight 5:45 AM CDT 9:25 PM CDT
Moon 10:06 PM CDT (9/4) 11:08 AM CDT (9/4)
Length of Visible Light 13h 37m
Length of Day
12h 46m
Waning Gibbous, 83% of the Moon is Illuminated
Sep 4
Waning Gibbous
Sep 8
Last Quarter
Sep 15
New
Sep 22
First Quarter
Sep 29
Full

Hourly Weather History & Observations

Time (CDT) Temp. Heat Index Dew Point Humidity Pressure Visibility Wind Dir Wind Speed Gust Speed Precip Events Conditions
12:15 AM 82.4 °F 82.0 °F 57.2 °F 42% 29.92 in 10.0 mi SE 4.6 mph - N/A   Clear
12:35 AM 82.4 °F 82.0 °F 57.2 °F 42% 29.92 in 10.0 mi ESE 5.8 mph - N/A   Clear
12:55 AM 80.6 °F 80.8 °F 57.2 °F 45% 29.92 in 10.0 mi ESE 3.5 mph - N/A   Clear
1:15 AM 80.6 °F 81.1 °F 59.0 °F 48% 29.92 in 10.0 mi ESE 4.6 mph - N/A   Clear
1:35 AM 78.8 °F - 59.0 °F 51% 29.92 in 10.0 mi ESE 5.8 mph - N/A   Clear
1:55 AM 80.6 °F 80.8 °F 57.2 °F 45% 29.92 in 10.0 mi SE 5.8 mph - N/A   Clear
2:15 AM 78.8 °F - 57.2 °F 47% 29.91 in 10.0 mi SE 5.8 mph - N/A   Clear
2:35 AM 78.8 °F - 57.2 °F 47% 29.91 in 10.0 mi SE 4.6 mph - N/A   Clear
2:55 AM 78.8 °F - 57.2 °F 47% 29.91 in 10.0 mi SE 4.6 mph - N/A   Clear
3:15 AM 78.8 °F - 57.2 °F 47% 29.91 in 10.0 mi SE 4.6 mph - N/A   Clear
3:35 AM 77.0 °F - 57.2 °F 50% 29.91 in 10.0 mi ESE 4.6 mph - N/A   Clear
3:55 AM 77.0 °F - 57.2 °F 50% 29.91 in 10.0 mi ESE 5.8 mph - N/A   Clear
4:15 AM 77.0 °F - 57.2 °F 50% 29.90 in 10.0 mi East 8.1 mph - N/A   Clear
4:35 AM 77.0 °F - 57.2 °F 50% 29.90 in 10.0 mi East 8.1 mph - N/A   Clear
4:55 AM 77.0 °F - 55.4 °F 47% 29.90 in 10.0 mi East 6.9 mph - N/A   Clear
5:15 AM 77.0 °F - 55.4 °F 47% 29.91 in 10.0 mi ESE 6.9 mph - N/A   Clear
5:35 AM 77.0 °F - 55.4 °F 47% 29.91 in 10.0 mi East 8.1 mph - N/A   Clear
5:55 AM 77.0 °F - 55.4 °F 47% 29.92 in 10.0 mi East 6.9 mph - N/A   Clear
6:35 AM 77.0 °F - 57.2 °F 50% 29.92 in 10.0 mi ESE 6.9 mph - N/A   Clear
6:55 AM 75.2 °F - 57.2 °F 53% 29.92 in 10.0 mi ESE 5.8 mph - N/A   Clear
7:15 AM 75.2 °F - 57.2 °F 53% 29.93 in 10.0 mi ESE 5.8 mph - N/A   Clear
7:35 AM 75.2 °F - 57.2 °F 53% 29.93 in 10.0 mi ESE 5.8 mph - N/A   Clear
7:55 AM 77.0 °F - 57.2 °F 50% 29.94 in 10.0 mi ESE 5.8 mph - N/A   Clear
8:15 AM 78.8 °F - 59.0 °F 51% 29.94 in 10.0 mi ESE 6.9 mph - N/A   Clear
8:35 AM 78.8 °F - 59.0 °F 51% 29.94 in 10.0 mi SE 6.9 mph - N/A   Clear
8:55 AM 80.6 °F 80.8 °F 57.2 °F 45% 29.94 in 10.0 mi SE 8.1 mph - N/A   Clear
9:15 AM 82.4 °F 82.0 °F 57.2 °F 42% 29.94 in 10.0 mi South 5.8 mph - N/A   Clear
9:35 AM 86.0 °F 84.5 °F 55.4 °F 35% 29.94 in 10.0 mi SSW 5.8 mph - N/A   Clear
9:55 AM 87.8 °F 86.5 °F 57.2 °F 35% 29.94 in 10.0 mi South 4.6 mph - N/A   Clear
10:15 AM 89.6 °F 88.1 °F 57.2 °F 33% 29.94 in 10.0 mi SSW 5.8 mph - N/A   Clear
10:35 AM 93.2 °F 92.6 °F 59.0 °F 32% 29.94 in 10.0 mi South 4.6 mph - N/A   Clear
10:55 AM 96.8 °F 95.8 °F 57.2 °F 27% 29.94 in 10.0 mi WSW 10.4 mph 16.1 mph N/A   Clear
11:15 AM 96.8 °F 95.8 °F 57.2 °F 27% 29.94 in 10.0 mi WSW 12.7 mph - N/A   Clear
11:35 AM 96.8 °F 95.8 °F 57.2 °F 27% 29.93 in 10.0 mi WSW 8.1 mph - N/A   Clear
11:55 AM 98.6 °F 97.6 °F 57.2 °F 25% 29.93 in 10.0 mi SW 9.2 mph - N/A   Clear
12:15 PM 98.6 °F 98.5 °F 59.0 °F 27% 29.93 in 10.0 mi WSW 10.4 mph - N/A   Clear
12:35 PM 98.6 °F 98.5 °F 59.0 °F 27% 29.92 in 10.0 mi WSW 9.2 mph - N/A   Clear
1:15 PM 98.6 °F 97.6 °F 57.2 °F 25% 29.90 in 10.0 mi West 5.8 mph - N/A   Clear
1:35 PM 100.4 °F 99.7 °F 57.2 °F 24% 29.89 in 10.0 mi South 4.6 mph - N/A   Clear
1:55 PM 100.4 °F 99.7 °F 57.2 °F 24% 29.88 in 10.0 mi SW 3.5 mph 17.3 mph N/A   Clear
2:15 PM 102.2 °F 101.4 °F 57.2 °F 22% 29.88 in 10.0 mi South 9.2 mph - N/A   Clear
2:35 PM 102.2 °F 100.9 °F 55.4 °F 21% 29.87 in 10.0 mi SW 12.7 mph 17.3 mph N/A   Clear
2:55 PM 104.0 °F 103.4 °F 57.2 °F 21% 29.87 in 10.0 mi SSW 12.7 mph - N/A   Clear
3:15 PM 104.0 °F 103.4 °F 57.2 °F 21% 29.86 in 10.0 mi South 9.2 mph 19.6 mph N/A   Clear
3:35 PM 104.0 °F 103.4 °F 57.2 °F 21% 29.86 in 10.0 mi South 12.7 mph 17.3 mph N/A   Clear
3:55 PM 104.0 °F 102.9 °F 55.4 °F 20% 29.85 in 10.0 mi South 12.7 mph 16.1 mph N/A   Clear
4:15 PM 104.0 °F 102.9 °F 55.4 °F 20% 29.85 in 10.0 mi SSW 11.5 mph - N/A   Clear
4:35 PM 104.0 °F 102.9 °F 55.4 °F 20% 29.84 in 10.0 mi SSW 12.7 mph 17.3 mph N/A   Clear
5:15 PM 104.0 °F 102.9 °F 55.4 °F 20% 29.82 in 10.0 mi SSW 8.1 mph 11.5 mph N/A   Clear
5:35 PM 104.0 °F 102.9 °F 55.4 °F 20% 29.82 in 10.0 mi SSW 10.4 mph - N/A   Clear
5:55 PM 104.0 °F 102.9 °F 55.4 °F 20% 29.82 in 10.0 mi SSW 10.4 mph - N/A   Clear
6:15 PM 102.2 °F 100.9 °F 55.4 °F 21% 29.82 in 10.0 mi South 12.7 mph - N/A   Clear
6:35 PM 102.2 °F 100.9 °F 55.4 °F 21% 29.81 in 10.0 mi SW 11.5 mph - N/A   Clear
6:55 PM 100.4 °F 98.8 °F 55.4 °F 22% 29.81 in 10.0 mi SSW 10.4 mph - N/A   Clear
7:15 PM 100.4 °F 98.8 °F 55.4 °F 22% 29.80 in 10.0 mi SSW 9.2 mph - N/A   Clear
7:35 PM 100.4 °F 98.8 °F 55.4 °F 22% 29.80 in 10.0 mi SSW 8.1 mph - N/A   Clear
7:55 PM 98.6 °F 97.2 °F 55.4 °F 24% 29.80 in 10.0 mi South 6.9 mph - N/A   Clear
8:15 PM 96.8 °F 95.1 °F 55.4 °F 25% 29.80 in 10.0 mi South 10.4 mph - N/A   Clear
8:35 PM 96.8 °F 95.1 °F 55.4 °F 25% 29.81 in 10.0 mi SSE 9.2 mph - N/A   Clear
8:55 PM 95.0 °F 93.0 °F 55.4 °F 26% 29.82 in 10.0 mi SSE 10.4 mph - N/A   Clear
9:15 PM 95.0 °F 93.0 °F 55.4 °F 26% 29.83 in 10.0 mi SSE 9.2 mph - N/A   Clear
9:35 PM 93.2 °F 91.3 °F 55.4 °F 28% 29.84 in 10.0 mi SSE 9.2 mph - N/A   Clear
9:55 PM 91.4 °F 89.4 °F 55.4 °F 29% 29.85 in 10.0 mi SSE 9.2 mph - N/A Thunderstorm Clear
10:15 PM 91.4 °F 89.4 °F 55.4 °F 29% 29.85 in 10.0 mi SE 8.1 mph - N/A   Clear
10:35 PM 89.6 °F 87.7 °F 55.4 °F 31% 29.86 in 10.0 mi ESE 6.9 mph - N/A   Clear
10:55 PM 87.8 °F 86.1 °F 55.4 °F 33% 29.86 in 10.0 mi ESE 6.9 mph - N/A   Clear
11:15 PM 86.0 °F 84.9 °F 57.2 °F 37% 29.87 in 10.0 mi NNE 13.8 mph - N/A   Clear
11:35 PM 86.0 °F 86.1 °F 60.8 °F 43% 29.89 in 10.0 mi North 13.8 mph 19.6 mph N/A   Clear
11:55 PM 84.2 °F 84.4 °F 60.8 °F 45% 29.90 in 10.0 mi NE 6.9 mph 18.4 mph N/A   Clear